createdAt,value
2022-10-13T00:01:58.125Z,100.00
2022-10-13T00:05:00.827Z,100.00
2022-10-13T00:08:03.276Z,100.00
2022-10-13T00:11:18.151Z,100.00
2022-10-13T00:14:20.764Z,100.00
2022-10-13T00:17:24.260Z,100.00
2022-10-13T00:20:26.784Z,100.00
2022-10-13T00:23:29.565Z,100.00
2022-10-13T00:26:32.122Z,100.00
2022-10-13T00:29:35.806Z,100.00
2022-10-13T00:32:38.287Z,100.00
2022-10-13T00:35:46.328Z,100.00
2022-10-13T00:38:50.607Z,100.00
2022-10-13T00:41:54.529Z,100.00
2022-10-13T00:45:01.202Z,100.00
2022-10-13T00:48:04.261Z,100.00
2022-10-13T00:51:07.238Z,100.00
2022-10-13T00:54:11.808Z,100.00
2022-10-13T00:57:14.389Z,100.00
2022-10-13T01:00:17.244Z,100.00
2022-10-13T01:03:20.571Z,100.00
2022-10-13T01:06:23.971Z,100.00
2022-10-13T01:09:26.639Z,100.00
2022-10-13T01:12:41.562Z,100.00
2022-10-13T01:16:28.679Z,100.00
2022-10-13T01:20:03.859Z,100.00
2022-10-13T01:23:54.971Z,100.00
2022-10-13T01:27:09.966Z,100.00
2022-10-13T01:30:16.733Z,100.00
2022-10-13T01:33:44.092Z,100.00
2022-10-13T01:37:03.774Z,100.00
2022-10-13T01:40:21.630Z,100.00
2022-10-13T01:43:27.483Z,100.00
2022-10-13T01:46:35.513Z,100.00
2022-10-13T01:49:38.776Z,100.00
2022-10-13T01:52:42.454Z,100.00
2022-10-13T01:55:55.677Z,100.00
2022-10-13T01:59:00.347Z,100.00
2022-10-13T02:02:19.649Z,100.00
2022-10-13T02:05:49.075Z,100.00
2022-10-13T02:09:03.382Z,100.00
2022-10-13T02:12:10.109Z,100.00
2022-10-13T02:15:18.317Z,100.00
2022-10-13T02:18:28.233Z,100.00
2022-10-13T02:21:30.840Z,100.00
2022-10-13T02:24:36.019Z,100.00
2022-10-13T02:27:38.495Z,100.00
2022-10-13T02:30:41.457Z,100.00
2022-10-13T02:33:44.013Z,100.00
2022-10-13T02:36:46.864Z,100.00
2022-10-13T02:39:49.417Z,100.00
2022-10-13T02:42:54.577Z,100.00
2022-10-13T02:45:56.997Z,100.00
2022-10-13T02:48:59.729Z,100.00
2022-10-13T02:52:04.470Z,100.00
2022-10-13T02:55:07.551Z,100.00
2022-10-13T02:58:10.006Z,100.00
2022-10-13T03:01:14.895Z,100.00
2022-10-13T03:04:17.355Z,100.00
2022-10-13T03:07:20.182Z,100.00
2022-10-13T03:10:22.900Z,100.00
2022-10-13T03:13:26.637Z,100.00
2022-10-13T03:16:29.257Z,100.00
2022-10-13T03:19:32.061Z,100.00
2022-10-13T03:22:34.530Z,100.00
2022-10-13T03:25:41.734Z,100.00
2022-10-13T03:28:44.256Z,100.00
2022-10-13T03:31:47.040Z,100.00
2022-10-13T03:34:50.585Z,100.00
2022-10-13T03:37:54.197Z,100.00
2022-10-13T03:40:58.057Z,100.00
2022-10-13T03:44:02.391Z,100.00
2022-10-13T03:47:05.543Z,100.00
2022-10-13T03:50:08.836Z,100.00
2022-10-13T03:53:11.779Z,100.00
2022-10-13T03:56:18.633Z,100.00
2022-10-13T03:59:25.148Z,100.00
2022-10-13T04:02:27.881Z,100.00
2022-10-13T04:05:30.948Z,100.00
2022-10-13T04:08:34.056Z,100.00
2022-10-13T04:11:36.895Z,100.00
2022-10-13T04:14:39.375Z,100.00
2022-10-13T04:17:43.864Z,100.00
2022-10-13T04:20:46.321Z,100.00
2022-10-13T04:23:49.145Z,100.00
2022-10-13T04:26:51.686Z,100.00
2022-10-13T04:29:54.380Z,100.00
2022-10-13T04:32:56.859Z,100.00
2022-10-13T04:35:59.664Z,100.00
2022-10-13T04:39:02.161Z,100.00
2022-10-13T04:42:05.170Z,100.00
2022-10-13T04:45:08.408Z,100.00
2022-10-13T04:48:11.926Z,100.00
2022-10-13T04:51:16.868Z,100.00
2022-10-13T04:54:19.595Z,100.00
2022-10-13T04:57:22.148Z,100.00
2022-10-13T05:00:24.938Z,100.00
2022-10-13T05:03:27.584Z,100.00
2022-10-13T05:06:33.557Z,100.00
2022-10-13T05:09:36.053Z,100.00
2022-10-13T05:12:43.053Z,100.00
2022-10-13T05:15:45.480Z,100.00
2022-10-13T05:18:50.697Z,100.00
2022-10-13T05:21:53.287Z,100.00
2022-10-13T05:24:56.163Z,100.00
2022-10-13T05:27:58.742Z,100.00
2022-10-13T05:31:15.378Z,100.00
2022-10-13T05:34:18.040Z,100.00
2022-10-13T05:37:22.655Z,100.00
2022-10-13T05:40:25.923Z,100.00
2022-10-13T05:43:32.509Z,100.00
2022-10-13T05:46:35.115Z,100.00
2022-10-13T05:49:39.932Z,100.00
2022-10-13T05:52:43.588Z,100.00
2022-10-13T05:55:46.528Z,100.00
2022-10-13T05:58:53.477Z,100.00
2022-10-13T06:01:56.449Z,100.00
2022-10-13T06:05:02.908Z,100.00
2022-10-13T06:08:05.460Z,100.00
2022-10-13T06:11:09.968Z,100.00
2022-10-13T06:14:13.457Z,100.00
2022-10-13T06:17:16.352Z,100.00
2022-10-13T06:20:20.555Z,100.00
2022-10-13T06:23:24.199Z,100.00
2022-10-13T06:26:26.684Z,100.00
2022-10-13T06:29:29.438Z,100.00
2022-10-13T06:32:33.094Z,100.00
2022-10-13T06:35:36.534Z,100.00
2022-10-13T06:38:39.164Z,100.00
2022-10-13T06:41:41.993Z,100.00
2022-10-13T06:44:44.505Z,100.00
2022-10-13T06:47:47.289Z,100.00
2022-10-13T06:50:49.797Z,100.00
2022-10-13T06:53:52.528Z,96.72
2022-10-13T06:56:57.621Z,93.54
2022-10-13T07:00:00.699Z,90.46
2022-10-13T07:03:03.892Z,88.84
2022-10-13T07:06:07.551Z,88.04
2022-10-13T07:09:10.446Z,86.17
2022-10-13T07:12:14.286Z,85.22
2022-10-13T07:15:16.857Z,83.74
2022-10-13T07:18:20.891Z,82.95
2022-10-13T07:21:23.391Z,81.30
2022-10-13T07:24:26.193Z,80.71
2022-10-13T07:27:28.829Z,79.19
2022-10-13T07:30:31.733Z,79.56
2022-10-13T07:33:34.337Z,82.97
2022-10-13T07:36:40.647Z,82.32
2022-10-13T07:39:43.238Z,82.64
2022-10-13T07:42:46.067Z,84.04
2022-10-13T07:45:48.716Z,86.72
2022-10-13T07:48:55.929Z,85.99
2022-10-13T07:51:58.437Z,87.17
2022-10-13T07:55:01.351Z,81.03
2022-10-13T07:58:04.403Z,84.33
2022-10-13T08:01:09.470Z,83.28
2022-10-13T08:04:14.210Z,85.73
2022-10-13T08:07:17.882Z,82.84
2022-10-13T08:10:22.312Z,81.01
2022-10-13T08:13:25.138Z,79.71
2022-10-13T08:16:29.314Z,80.78
2022-10-13T08:19:32.472Z,74.22
2022-10-13T08:22:35.540Z,69.15
2022-10-13T08:25:39.185Z,67.21
2022-10-13T08:28:48.634Z,65.28
2022-10-13T08:32:00.116Z,64.45
2022-10-13T08:35:04.278Z,62.59
2022-10-13T08:38:07.682Z,64.77
2022-10-13T08:41:24.529Z,62.19
2022-10-13T08:48:06.212Z,65.21
2022-10-13T08:51:08.881Z,67.31
2022-10-13T08:54:15.619Z,67.93
2022-10-13T08:57:18.791Z,68.47
2022-10-13T09:00:22.822Z,70.70
2022-10-13T09:03:29.021Z,73.25
2022-10-13T09:06:44.217Z,67.20
2022-10-13T09:09:51.941Z,68.33
2022-10-13T09:12:56.201Z,67.42
2022-10-13T09:15:58.738Z,65.34
2022-10-13T09:19:28.037Z,69.04
2022-10-13T09:22:31.969Z,67.61
2022-10-13T09:25:43.003Z,67.89
2022-10-13T09:28:45.755Z,69.46
2022-10-13T09:31:48.619Z,68.18
2022-10-13T09:34:52.814Z,65.36
2022-10-13T09:38:05.555Z,66.22
2022-10-13T09:41:14.957Z,65.08
2022-10-13T09:44:37.955Z,64.13
2022-10-13T09:47:40.926Z,61.30
2022-10-13T09:50:49.013Z,61.19
2022-10-13T09:53:51.618Z,60.70
2022-10-13T09:57:03.069Z,63.81
2022-10-13T10:00:22.280Z,60.78
2022-10-13T10:03:29.836Z,62.68
2022-10-13T10:06:32.326Z,62.22
2022-10-13T10:09:44.549Z,61.34
2022-10-13T10:12:48.009Z,62.51
2022-10-13T10:15:55.973Z,63.13
2022-10-13T10:19:25.485Z,64.41
2022-10-13T10:22:53.044Z,63.08
2022-10-13T10:26:28.849Z,60.68
2022-10-13T10:29:43.340Z,63.03
2022-10-13T10:33:11.198Z,64.82
2022-10-13T10:36:20.786Z,64.44
2022-10-13T10:39:40.585Z,67.52
2022-10-13T10:43:18.799Z,65.03
2022-10-13T10:46:28.181Z,65.99
2022-10-13T10:49:34.743Z,64.94
2022-10-13T10:52:46.629Z,65.11
2022-10-13T10:55:55.508Z,66.05
2022-10-13T10:59:16.799Z,65.82
2022-10-13T11:02:42.127Z,66.55
2022-10-13T11:06:05.855Z,65.90
2022-10-13T11:09:11.550Z,68.48
2022-10-13T11:12:20.704Z,66.64
2022-10-13T11:15:28.815Z,67.08
2022-10-13T11:19:05.458Z,66.14
2022-10-13T11:22:12.942Z,68.19
2022-10-13T11:25:39.982Z,64.83
2022-10-13T11:28:43.131Z,66.08
2022-10-13T11:31:50.007Z,66.18
2022-10-13T11:35:12.959Z,67.59
2022-10-13T11:38:34.936Z,69.13
2022-10-13T11:41:55.359Z,68.30
2022-10-13T11:44:59.981Z,69.51
2022-10-13T11:48:21.630Z,70.24
2022-10-13T11:51:30.382Z,70.28
2022-10-13T11:54:42.358Z,70.87
2022-10-13T11:57:44.947Z,70.64
2022-10-13T12:00:50.667Z,70.44
2022-10-13T12:03:53.426Z,70.46
2022-10-13T12:06:59.652Z,70.81
2022-10-13T12:10:06.274Z,71.19
2022-10-13T12:13:21.287Z,70.42
2022-10-13T12:16:24.166Z,70.88
2022-10-13T12:19:28.916Z,70.47
2022-10-13T12:22:31.824Z,69.97
2022-10-13T12:25:34.366Z,70.72
2022-10-13T12:28:48.137Z,70.53
2022-10-13T12:31:51.098Z,70.44
2022-10-13T12:34:54.020Z,69.70
2022-10-13T12:37:57.487Z,69.28
2022-10-13T12:41:00.347Z,70.25
2022-10-13T12:44:06.612Z,68.96
2022-10-13T12:47:49.345Z,67.89
2022-10-13T12:50:51.900Z,68.05
2022-10-13T12:53:54.915Z,68.47
2022-10-13T12:56:59.658Z,67.93
2022-10-13T13:00:05.898Z,68.41
2022-10-13T13:03:22.999Z,68.30
2022-10-13T13:06:30.697Z,68.85
2022-10-13T13:09:34.889Z,69.38
2022-10-13T13:12:38.078Z,69.19
2022-10-13T13:15:44.870Z,68.56
2022-10-13T13:18:49.514Z,68.15
2022-10-13T13:21:53.640Z,68.36
2022-10-13T13:24:56.473Z,68.63
2022-10-13T13:27:58.999Z,68.84
2022-10-13T13:31:01.988Z,69.14
2022-10-13T13:34:04.414Z,69.89
2022-10-13T13:37:12.529Z,69.53
2022-10-13T13:40:17.856Z,69.15
2022-10-13T13:43:20.580Z,68.48
2022-10-13T13:46:27.865Z,68.25
2022-10-13T13:49:30.737Z,66.62
2022-10-13T13:52:33.411Z,65.92
2022-10-13T13:55:36.446Z,65.93
2022-10-13T13:58:41.173Z,65.95
2022-10-13T14:01:44.251Z,66.20
2022-10-13T14:04:47.244Z,66.89
2022-10-13T14:07:50.559Z,67.31
2022-10-13T14:10:53.260Z,66.88
2022-10-13T14:13:58.124Z,66.98
2022-10-13T14:17:04.923Z,66.69
2022-10-13T14:20:07.837Z,65.00
2022-10-13T14:23:13.329Z,65.34
2022-10-13T14:26:15.968Z,65.74
2022-10-13T14:29:18.894Z,66.00
2022-10-13T14:32:21.629Z,66.49
2022-10-13T14:35:24.649Z,66.93
2022-10-13T14:38:27.409Z,67.70
2022-10-13T14:41:30.226Z,68.07
2022-10-13T14:44:32.633Z,68.30
2022-10-13T14:47:35.419Z,68.40
2022-10-13T14:50:38.188Z,68.50
2022-10-13T14:53:43.142Z,68.61
2022-10-13T14:56:45.756Z,68.68
2022-10-13T14:59:48.745Z,68.46
2022-10-13T15:02:51.277Z,68.46
2022-10-13T15:05:54.445Z,68.17
2022-10-13T15:08:58.904Z,68.41
2022-10-13T15:12:01.811Z,68.97
2022-10-13T15:15:04.591Z,69.11
2022-10-13T15:18:07.378Z,69.43
2022-10-13T15:21:09.850Z,70.06
2022-10-13T15:24:12.753Z,70.24
2022-10-13T15:27:17.853Z,70.60
2022-10-13T15:30:20.587Z,70.75
2022-10-13T15:33:23.122Z,70.89
2022-10-13T15:36:26.089Z,71.50
2022-10-13T15:39:28.551Z,71.83
2022-10-13T15:42:31.337Z,72.43
2022-10-13T15:45:34.239Z,73.15
2022-10-13T15:48:36.998Z,73.57
2022-10-13T15:51:39.894Z,74.31
2022-10-13T15:54:42.735Z,74.91
2022-10-13T15:57:45.585Z,75.53
2022-10-13T16:00:48.389Z,75.80
2022-10-13T16:03:55.617Z,76.48
2022-10-13T16:06:58.765Z,77.81
2022-10-13T16:10:01.798Z,78.44
2022-10-13T16:13:04.349Z,79.98
2022-10-13T16:16:08.093Z,80.24
2022-10-13T16:19:10.585Z,81.01
2022-10-13T16:22:14.064Z,82.56
2022-10-13T16:25:16.852Z,83.65
2022-10-13T16:28:19.715Z,84.28
2022-10-13T16:31:22.539Z,86.49
2022-10-13T16:34:25.391Z,86.55
2022-10-13T16:37:27.871Z,87.74
2022-10-13T16:40:31.115Z,88.68
2022-10-13T16:43:34.326Z,89.44
2022-10-13T16:46:37.168Z,89.69
2022-10-13T16:49:39.676Z,90.88
2022-10-13T16:52:43.615Z,92.48
2022-10-13T16:55:46.209Z,91.87
2022-10-13T16:58:53.929Z,92.36
2022-10-13T17:01:57.941Z,93.19
2022-10-13T17:05:00.733Z,93.00
2022-10-13T17:08:03.209Z,96.15
2022-10-13T17:11:06.405Z,95.19
2022-10-13T17:14:10.991Z,94.80
2022-10-13T17:17:13.721Z,98.36
2022-10-13T17:20:16.175Z,96.97
2022-10-13T17:23:19.898Z,96.37
2022-10-13T17:26:22.538Z,97.02
2022-10-13T17:29:25.344Z,97.61
2022-10-13T17:32:29.100Z,100.00
2022-10-13T17:35:31.991Z,100.00
2022-10-13T17:38:34.874Z,100.00
2022-10-13T17:41:37.636Z,100.00
2022-10-13T17:44:40.321Z,100.00
2022-10-13T17:47:50.655Z,100.00
2022-10-13T17:50:53.137Z,100.00
2022-10-13T17:53:59.040Z,100.00
2022-10-13T17:57:01.656Z,100.00
2022-10-13T18:00:05.784Z,100.00
2022-10-13T18:03:14.737Z,100.00
2022-10-13T18:06:18.065Z,100.00
2022-10-13T18:09:23.612Z,100.00
2022-10-13T18:12:26.353Z,100.00
2022-10-13T18:15:28.801Z,100.00
2022-10-13T18:18:31.742Z,100.00
2022-10-13T18:21:34.221Z,100.00
2022-10-13T18:24:36.990Z,100.00
2022-10-13T18:27:39.563Z,100.00
2022-10-13T18:30:42.322Z,100.00
2022-10-13T18:33:45.229Z,100.00
2022-10-13T18:36:51.252Z,100.00
2022-10-13T18:39:53.758Z,100.00
2022-10-13T18:42:56.746Z,100.00
2022-10-13T18:46:00.304Z,100.00
2022-10-13T18:49:04.291Z,100.00
2022-10-13T18:52:06.797Z,100.00
2022-10-13T18:55:12.069Z,100.00
2022-10-13T18:58:14.764Z,100.00
2022-10-13T19:01:22.040Z,100.00
2022-10-13T19:04:26.235Z,100.00
2022-10-13T19:07:29.805Z,100.00
2022-10-13T19:10:33.324Z,100.00
2022-10-13T19:13:36.027Z,100.00
2022-10-13T19:16:40.909Z,100.00
2022-10-13T19:19:43.818Z,100.00
2022-10-13T19:22:46.325Z,100.00
2022-10-13T19:25:50.794Z,100.00
2022-10-13T19:28:58.952Z,100.00
2022-10-13T19:32:01.949Z,100.00
2022-10-13T19:35:04.481Z,100.00
2022-10-13T19:38:07.216Z,100.00
2022-10-13T19:41:09.950Z,100.00
2022-10-13T19:44:13.196Z,100.00
2022-10-13T19:47:15.694Z,100.00
2022-10-13T19:50:18.715Z,100.00
2022-10-13T19:53:21.237Z,100.00
2022-10-13T19:56:27.097Z,100.00
2022-10-13T19:59:29.589Z,100.00
2022-10-13T20:02:32.358Z,100.00
2022-10-13T20:05:38.072Z,100.00
2022-10-13T20:08:40.530Z,100.00
2022-10-13T20:11:49.674Z,100.00
2022-10-13T20:14:52.140Z,100.00
2022-10-13T20:17:54.882Z,100.00
2022-10-13T20:21:01.820Z,100.00
2022-10-13T20:24:04.676Z,100.00
2022-10-13T20:27:07.152Z,100.00
2022-10-13T20:30:10.916Z,100.00
2022-10-13T20:33:13.484Z,100.00
2022-10-13T20:36:17.491Z,100.00
2022-10-13T20:39:19.956Z,100.00
2022-10-13T20:42:22.994Z,100.00
2022-10-13T20:45:25.821Z,100.00
2022-10-13T20:48:57.772Z,100.00
2022-10-13T20:51:55.954Z,100.00
2022-10-13T20:54:58.707Z,100.00
2022-10-13T20:58:01.546Z,100.00
2022-10-13T21:01:04.799Z,100.00
2022-10-13T21:04:09.266Z,100.00
2022-10-13T21:07:11.994Z,100.00
2022-10-13T21:10:14.501Z,100.00
2022-10-13T21:13:17.323Z,100.00
2022-10-13T21:16:27.223Z,100.00
2022-10-13T21:19:30.194Z,100.00
2022-10-13T21:22:32.638Z,100.00
2022-10-13T21:25:35.780Z,100.00
2022-10-13T21:28:39.063Z,100.00
2022-10-13T21:31:42.131Z,100.00
2022-10-13T21:34:44.658Z,100.00
2022-10-13T21:37:47.480Z,100.00
2022-10-13T21:40:53.809Z,100.00
2022-10-13T21:43:57.216Z,100.00
2022-10-13T21:46:59.690Z,100.00
2022-10-13T21:50:04.532Z,100.00
2022-10-13T21:53:07.177Z,100.00
2022-10-13T21:56:11.816Z,100.00
2022-10-13T21:59:14.391Z,100.00
2022-10-13T22:02:17.378Z,100.00
2022-10-13T22:05:20.234Z,100.00
2022-10-13T22:08:37.518Z,100.00
2022-10-13T22:11:44.316Z,100.00
2022-10-13T22:14:46.893Z,100.00
2022-10-13T22:17:49.657Z,100.00
2022-10-13T22:20:52.119Z,100.00
2022-10-13T22:24:00.053Z,100.00
2022-10-13T22:27:02.476Z,100.00
2022-10-13T22:30:05.808Z,100.00
2022-10-13T22:33:08.289Z,100.00
2022-10-13T22:36:14.459Z,100.00
2022-10-13T22:39:17.994Z,100.00
2022-10-13T22:42:21.391Z,100.00
2022-10-13T22:45:23.984Z,100.00
2022-10-13T22:48:26.739Z,100.00
2022-10-13T22:51:30.975Z,100.00
2022-10-13T22:54:33.742Z,100.00
2022-10-13T22:57:36.191Z,100.00
2022-10-13T23:00:39.564Z,100.00
2022-10-13T23:03:44.173Z,100.00
2022-10-13T23:06:46.998Z,100.00
2022-10-13T23:09:50.283Z,100.00
2022-10-13T23:12:52.980Z,100.00
2022-10-13T23:16:04.620Z,100.00
2022-10-13T23:19:12.872Z,100.00
2022-10-13T23:22:16.927Z,100.00
2022-10-13T23:25:20.503Z,100.00
2022-10-13T23:28:22.955Z,100.00
2022-10-13T23:31:27.168Z,100.00
2022-10-13T23:34:29.704Z,100.00
2022-10-13T23:37:32.542Z,100.00
2022-10-13T23:40:35.982Z,100.00
2022-10-13T23:43:38.912Z,100.00
2022-10-13T23:46:41.400Z,100.00
2022-10-13T23:49:45.904Z,100.00
2022-10-13T23:52:48.353Z,100.00
2022-10-13T23:55:52.156Z,100.00
2022-10-13T23:59:01.303Z,100.00
